Wetterstation Vordersexau
Wetterdaten: August 2013
Datum Temp. A. Feuchte A. Luftdruck Regen Wind Richtung Taupunkt Windchill Windben
01.08.2013 26,4 C 57 % 1014,5 hPa 0,0 l/m 1,4 km/h NO 15,8 C 26,2 C 0,8 km/h
02.08.2013 27,9 C 57 % 1012,8 hPa 0,0 l/m 1,9 km/h S-SO 17,2 C 27,9 C 1,0 km/h
03.08.2013 26,1 C 58 % 1016,3 hPa 0,0 l/m 2,5 km/h NO 16,5 C 26,1 C 1,4 km/h
04.08.2013 23,1 C 68 % 1019,1 hPa 0,5 l/m 2,1 km/h S-SO 16,1 C 22,8 C 1,2 km/h
05.08.2013 26,4 C 61 % 1014,7 hPa 0,0 l/m 1,1 km/h O-NO 17,3 C 26,4 C 0,6 km/h
06.08.2013 25,6 C 65 % 1013,2 hPa 0,0 l/m 1,7 km/h S-SO 18,1 C 25,6 C 0,9 km/h
07.08.2013 20,7 C 70 % 1010,5 hPa 10,4 l/m 3,5 km/h S-SO 14,7 C 20,5 C 1,9 km/h
08.08.2013 19,6 C 69 % 1014,4 hPa 0,5 l/m 1,7 km/h S-SO 13,8 C 19,4 C 0,9 km/h
09.08.2013 20,5 C 65 % 1019,3 hPa 1,6 l/m 0,9 km/h NW 13,2 C 20,5 C 0,5 km/h
10.08.2013 20,9 C 64 % 1018,9 hPa 0,0 l/m 2,6 km/h S 13,2 C 20,8 C 1,4 km/h
11.08.2013 20,9 C 62 % 1017,8 hPa 0,0 l/m 2,9 km/h O 12,6 C 20,7 C 1,6 km/h
12.08.2013 21,9 C 60 % 1015,1 hPa 0,0 l/m 2,0 km/h O-SO 13,0 C 21,9 C 1,1 km/h
13.08.2013 18,5 C 65 % 1017,9 hPa 1,0 l/m 1,6 km/h NO 11,2 C 18,5 C 0,9 km/h
14.08.2013 17,7 C 62 % 1020,6 hPa 0,0 l/m 1,4 km/h S-SO 9,6 C 17,5 C 0,7 km/h
15.08.2013 19,7 C 61 % 1019,8 hPa 0,0 l/m 3,0 km/h O-SO 10,8 C 19,6 C 1,7 km/h
16.08.2013 22,0 C 57 % 1016,2 hPa 0,0 l/m 2,0 km/h O-SO 11,5 C 22,0 C 1,1 km/h
17.08.2013 24,0 C 56 % 1014,5 hPa 0,0 l/m 1,8 km/h S-SO 13,3 C 23,8 C 1,0 km/h
18.08.2013 22,0 C 62 % 1014,3 hPa 0,0 l/m 4,0 km/h SO 13,5 C 22,0 C 2,2 km/h
19.08.2013 18,9 C 74 % 1015,8 hPa 29,5 l/m 2,6 km/h S-SO 14,0 C 18,7 C 1,4 km/h
20.08.2013 18,9 C 58 % 1024,0 hPa 1,0 l/m 0,6 km/h O-NO 9,5 C 18,9 C 0,4 km/h
21.08.2013 19,7 C 59 % 1020,7 hPa 0,0 l/m 1,7 km/h O-NO 10,0 C 19,7 C 0,9 km/h
22.08.2013 19,6 C 62 % 1016,0 hPa 0,0 l/m 0,4 km/h NO 11,2 C 19,6 C 0,2 km/h
23.08.2013 20,9 C 65 % 1013,2 hPa 0,0 l/m 1,6 km/h S-SO 13,1 C 20,9 C 0,9 km/h
24.08.2013 18,5 C 75 % 1010,7 hPa 10,4 l/m 2,5 km/h O-NO 13,9 C 18,3 C 1,4 km/h
25.08.2013 16,2 C 75 % 1010,2 hPa 7,3 l/m 2,0 km/h NO 11,7 C 15,8 C 1,1 km/h
26.08.2013 17,9 C 68 % 1010,1 hPa 0,0 l/m 1,0 km/h NO 11,5 C 17,9 C 0,6 km/h
27.08.2013 15,9 C 75 % 1011,3 hPa 1,6 l/m 1,1 km/h S-SO 11,5 C 15,8 C 0,6 km/h
28.08.2013 17,2 C 74 % 1015,4 hPa 3,6 l/m 0,5 km/h NO 12,4 C 17,1 C 0,3 km/h
29.08.2013 18,3 C 64 % 1018,6 hPa 0,5 l/m 1,3 km/h O-NO 11,1 C 18,2 C 0,7 km/h
30.08.2013 20,1 C 62 % 1018,2 hPa 0,0 l/m 1,6 km/h NO 11,7 C 20,1 C 0,9 km/h
31.08.2013 19,0 C 67 % 1019,8 hPa 0,0 l/m 0,3 km/h S-SO 12,1 C 19,0 C 0,2 km/h
Min-Datum 21.08.13 01.08.13 07.08.13 12 Tage 01.08.13 - 29.08.13 14.08.13 01.08.13
Min-Zeit 06:19 18:19 04:19 - 01:19 - 07:19 06:19 01:19
Minimum 7,5 C 24 % 1008,1 hPa - 0,0 km/h - 3,0 C 5,7 C 0,0 km/h
Max-Datum 02.08.13 14.08.13 20.08.13 19.08.13 15.08.13 - 05.08.13 02.08.13 15.08.13
Max-Zeit 17:19 02:19 10:19 17:19 16:19 - 17:19 17:19 16:19
Maximum 43,1 C 82 % 1025,2 hPa 29,5 l/m 24,6 km/h
O-SO
- 21,8 C 43,1 C 13,7 km/h
O-SO
Durchschnitt 20,8 C 64 % 1015,9 hPa #67,9 l/m 1,8 km/h S-SO 13,1 C 20,7 C 1,0 km/h

Durchschnitt Minimum Temp.12,7 C
Durchschnitt Maximum Temp.32,7 C
www.sexauwetter.de